sensor_id;sensor_type;location;lat;lon;timestamp;P1;durP1;ratioP1;P2;durP2;ratioP2
19525;SDS011;9907;42.676;26.348;2023-12-29T00:02:10;7.07;;;4.97;;
19525;SDS011;9907;42.676;26.348;2023-12-29T00:04:35;7.43;;;5.33;;
19525;SDS011;9907;42.676;26.348;2023-12-29T00:07:01;5.83;;;4.83;;
19525;SDS011;9907;42.676;26.348;2023-12-29T00:09:26;8.27;;;5.07;;
19525;SDS011;9907;42.676;26.348;2023-12-29T00:11:52;6.70;;;5.03;;
19525;SDS011;9907;42.676;26.348;2023-12-29T00:14:19;7.87;;;5.07;;
19525;SDS011;9907;42.676;26.348;2023-12-29T00:16:45;9.03;;;5.50;;
19525;SDS011;9907;42.676;26.348;2023-12-29T00:19:11;5.33;;;4.17;;
19525;SDS011;9907;42.676;26.348;2023-12-29T00:21:37;5.23;;;4.27;;
19525;SDS011;9907;42.676;26.348;2023-12-29T00:24:03;5.97;;;4.00;;
19525;SDS011;9907;42.676;26.348;2023-12-29T00:26:29;4.40;;;3.80;;
19525;SDS011;9907;42.676;26.348;2023-12-29T00:28:55;5.77;;;4.70;;
19525;SDS011;9907;42.676;26.348;2023-12-29T00:31:20;5.97;;;4.27;;
19525;SDS011;9907;42.676;26.348;2023-12-29T00:33:46;8.30;;;4.87;;
19525;SDS011;9907;42.676;26.348;2023-12-29T00:36:18;11.93;;;4.97;;
19525;SDS011;9907;42.676;26.348;2023-12-29T00:38:44;6.63;;;5.37;;
19525;SDS011;9907;42.676;26.348;2023-12-29T00:41:10;7.70;;;5.70;;
19525;SDS011;9907;42.676;26.348;2023-12-29T00:43:35;11.03;;;5.37;;
19525;SDS011;9907;42.676;26.348;2023-12-29T00:46:01;7.80;;;5.23;;
19525;SDS011;9907;42.676;26.348;2023-12-29T00:48:28;9.37;;;6.17;;
19525;SDS011;9907;42.676;26.348;2023-12-29T00:50:54;6.97;;;5.90;;
19525;SDS011;9907;42.676;26.348;2023-12-29T00:53:19;9.10;;;6.03;;
19525;SDS011;9907;42.676;26.348;2023-12-29T00:55:44;8.37;;;5.77;;
19525;SDS011;9907;42.676;26.348;2023-12-29T00:58:10;7.77;;;5.30;;
19525;SDS011;9907;42.676;26.348;2023-12-29T01:00:35;6.67;;;5.20;;
19525;SDS011;9907;42.676;26.348;2023-12-29T01:03:01;7.90;;;4.93;;
19525;SDS011;9907;42.676;26.348;2023-12-29T01:05:26;9.37;;;5.47;;
19525;SDS011;9907;42.676;26.348;2023-12-29T01:07:52;8.33;;;5.40;;
19525;SDS011;9907;42.676;26.348;2023-12-29T01:10:19;6.80;;;5.40;;
19525;SDS011;9907;42.676;26.348;2023-12-29T01:12:45;7.63;;;5.47;;
19525;SDS011;9907;42.676;26.348;2023-12-29T01:15:10;6.80;;;5.17;;
19525;SDS011;9907;42.676;26.348;2023-12-29T01:17:36;7.27;;;6.07;;
19525;SDS011;9907;42.676;26.348;2023-12-29T01:20:01;8.10;;;5.93;;
19525;SDS011;9907;42.676;26.348;2023-12-29T01:22:29;7.27;;;4.90;;
19525;SDS011;9907;42.676;26.348;2023-12-29T01:24:54;7.27;;;5.43;;
19525;SDS011;9907;42.676;26.348;2023-12-29T01:27:20;6.87;;;5.13;;
19525;SDS011;9907;42.676;26.348;2023-12-29T01:29:45;6.57;;;5.03;;
19525;SDS011;9907;42.676;26.348;2023-12-29T01:32:10;7.50;;;4.57;;
19525;SDS011;9907;42.676;26.348;2023-12-29T01:34:36;6.83;;;4.37;;
19525;SDS011;9907;42.676;26.348;2023-12-29T01:37:04;4.57;;;4.07;;
19525;SDS011;9907;42.676;26.348;2023-12-29T01:39:30;5.97;;;4.47;;
19525;SDS011;9907;42.676;26.348;2023-12-29T01:41:55;4.20;;;3.80;;
19525;SDS011;9907;42.676;26.348;2023-12-29T01:44:21;5.30;;;4.27;;
19525;SDS011;9907;42.676;26.348;2023-12-29T01:46:49;6.97;;;4.43;;
19525;SDS011;9907;42.676;26.348;2023-12-29T01:49:17;7.67;;;4.30;;
19525;SDS011;9907;42.676;26.348;2023-12-29T01:51:44;6.60;;;4.43;;
19525;SDS011;9907;42.676;26.348;2023-12-29T01:54:15;5.40;;;4.33;;
19525;SDS011;9907;42.676;26.348;2023-12-29T01:56:41;8.07;;;4.80;;
19525;SDS011;9907;42.676;26.348;2023-12-29T01:59:07;7.03;;;4.33;;
19525;SDS011;9907;42.676;26.348;2023-12-29T02:01:33;5.10;;;4.53;;
19525;SDS011;9907;42.676;26.348;2023-12-29T02:04:00;6.80;;;4.50;;
19525;SDS011;9907;42.676;26.348;2023-12-29T02:06:26;7.37;;;5.60;;
19525;SDS011;9907;42.676;26.348;2023-12-29T02:08:52;7.90;;;5.10;;
19525;SDS011;9907;42.676;26.348;2023-12-29T02:11:18;7.33;;;4.50;;
19525;SDS011;9907;42.676;26.348;2023-12-29T02:13:43;5.57;;;4.50;;
19525;SDS011;9907;42.676;26.348;2023-12-29T02:16:11;5.20;;;4.03;;
19525;SDS011;9907;42.676;26.348;2023-12-29T02:18:42;5.43;;;4.17;;
19525;SDS011;9907;42.676;26.348;2023-12-29T02:21:10;5.47;;;3.90;;
19525;SDS011;9907;42.676;26.348;2023-12-29T02:23:36;6.10;;;3.90;;
19525;SDS011;9907;42.676;26.348;2023-12-29T02:26:02;5.57;;;3.67;;
19525;SDS011;9907;42.676;26.348;2023-12-29T02:28:34;5.07;;;3.63;;
19525;SDS011;9907;42.676;26.348;2023-12-29T02:31:06;5.50;;;4.00;;
19525;SDS011;9907;42.676;26.348;2023-12-29T02:33:37;6.50;;;4.10;;
19525;SDS011;9907;42.676;26.348;2023-12-29T02:36:05;7.13;;;4.20;;
19525;SDS011;9907;42.676;26.348;2023-12-29T02:38:31;5.37;;;4.30;;
19525;SDS011;9907;42.676;26.348;2023-12-29T02:40:58;6.30;;;4.30;;
19525;SDS011;9907;42.676;26.348;2023-12-29T02:43:24;6.10;;;4.70;;
19525;SDS011;9907;42.676;26.348;2023-12-29T02:45:50;7.70;;;4.07;;
19525;SDS011;9907;42.676;26.348;2023-12-29T02:48:15;8.33;;;4.50;;
19525;SDS011;9907;42.676;26.348;2023-12-29T02:50:41;7.30;;;4.67;;
19525;SDS011;9907;42.676;26.348;2023-12-29T02:53:06;6.40;;;5.30;;
19525;SDS011;9907;42.676;26.348;2023-12-29T02:55:32;5.83;;;4.57;;
19525;SDS011;9907;42.676;26.348;2023-12-29T02:57:58;8.00;;;5.63;;
19525;SDS011;9907;42.676;26.348;2023-12-29T03:00:23;6.20;;;4.73;;
19525;SDS011;9907;42.676;26.348;2023-12-29T03:02:49;7.03;;;5.60;;
19525;SDS011;9907;42.676;26.348;2023-12-29T03:05:14;9.40;;;5.70;;
19525;SDS011;9907;42.676;26.348;2023-12-29T03:07:40;6.30;;;5.17;;
19525;SDS011;9907;42.676;26.348;2023-12-29T03:10:06;7.90;;;5.87;;
19525;SDS011;9907;42.676;26.348;2023-12-29T03:12:32;8.57;;;5.50;;
19525;SDS011;9907;42.676;26.348;2023-12-29T03:14:57;6.77;;;5.23;;
19525;SDS011;9907;42.676;26.348;2023-12-29T03:17:23;9.50;;;5.57;;
19525;SDS011;9907;42.676;26.348;2023-12-29T03:19:48;10.53;;;6.17;;
19525;SDS011;9907;42.676;26.348;2023-12-29T03:22:14;10.03;;;6.10;;
19525;SDS011;9907;42.676;26.348;2023-12-29T03:24:42;9.27;;;6.03;;
19525;SDS011;9907;42.676;26.348;2023-12-29T03:27:08;8.20;;;6.17;;
19525;SDS011;9907;42.676;26.348;2023-12-29T03:29:34;10.30;;;5.93;;
19525;SDS011;9907;42.676;26.348;2023-12-29T03:31:59;7.80;;;5.50;;
19525;SDS011;9907;42.676;26.348;2023-12-29T03:34:25;9.50;;;5.63;;
19525;SDS011;9907;42.676;26.348;2023-12-29T03:36:50;7.07;;;5.43;;
19525;SDS011;9907;42.676;26.348;2023-12-29T03:39:16;6.63;;;5.30;;
19525;SDS011;9907;42.676;26.348;2023-12-29T03:41:41;6.70;;;4.20;;
19525;SDS011;9907;42.676;26.348;2023-12-29T03:44:07;6.17;;;4.13;;
19525;SDS011;9907;42.676;26.348;2023-12-29T03:46:32;6.97;;;4.57;;
19525;SDS011;9907;42.676;26.348;2023-12-29T03:48:58;6.90;;;4.33;;
19525;SDS011;9907;42.676;26.348;2023-12-29T03:51:24;6.60;;;4.80;;
19525;SDS011;9907;42.676;26.348;2023-12-29T03:53:49;6.27;;;4.87;;
19525;SDS011;9907;42.676;26.348;2023-12-29T03:56:15;6.80;;;4.90;;
19525;SDS011;9907;42.676;26.348;2023-12-29T03:58:43;7.73;;;4.93;;
19525;SDS011;9907;42.676;26.348;2023-12-29T04:01:09;7.63;;;4.77;;
19525;SDS011;9907;42.676;26.348;2023-12-29T04:03:36;5.03;;;4.20;;
19525;SDS011;9907;42.676;26.348;2023-12-29T04:06:02;6.93;;;4.83;;
19525;SDS011;9907;42.676;26.348;2023-12-29T04:08:27;11.03;;;6.60;;
19525;SDS011;9907;42.676;26.348;2023-12-29T04:10:52;8.00;;;6.37;;
19525;SDS011;9907;42.676;26.348;2023-12-29T04:13:18;8.13;;;6.07;;
19525;SDS011;9907;42.676;26.348;2023-12-29T04:15:47;11.47;;;6.57;;
19525;SDS011;9907;42.676;26.348;2023-12-29T04:18:13;8.93;;;6.60;;
19525;SDS011;9907;42.676;26.348;2023-12-29T04:20:38;9.73;;;6.83;;
19525;SDS011;9907;42.676;26.348;2023-12-29T04:23:05;8.57;;;6.27;;
19525;SDS011;9907;42.676;26.348;2023-12-29T04:25:32;9.63;;;5.70;;
19525;SDS011;9907;42.676;26.348;2023-12-29T04:27:58;8.57;;;6.43;;
19525;SDS011;9907;42.676;26.348;2023-12-29T04:30:23;7.33;;;5.80;;
19525;SDS011;9907;42.676;26.348;2023-12-29T04:32:49;11.97;;;6.20;;
19525;SDS011;9907;42.676;26.348;2023-12-29T04:35:15;6.53;;;5.40;;
19525;SDS011;9907;42.676;26.348;2023-12-29T04:37:44;5.80;;;5.00;;
19525;SDS011;9907;42.676;26.348;2023-12-29T04:40:10;5.67;;;4.90;;
19525;SDS011;9907;42.676;26.348;2023-12-29T04:42:36;8.07;;;5.10;;
19525;SDS011;9907;42.676;26.348;2023-12-29T04:45:01;8.53;;;5.63;;
19525;SDS011;9907;42.676;26.348;2023-12-29T04:47:27;8.30;;;6.10;;
19525;SDS011;9907;42.676;26.348;2023-12-29T04:49:52;9.33;;;5.73;;
19525;SDS011;9907;42.676;26.348;2023-12-29T04:52:18;10.07;;;5.93;;
19525;SDS011;9907;42.676;26.348;2023-12-29T04:54:43;8.27;;;6.30;;
19525;SDS011;9907;42.676;26.348;2023-12-29T04:57:08;8.93;;;6.17;;
19525;SDS011;9907;42.676;26.348;2023-12-29T04:59:34;8.67;;;5.97;;
19525;SDS011;9907;42.676;26.348;2023-12-29T05:01:59;10.40;;;5.80;;
19525;SDS011;9907;42.676;26.348;2023-12-29T05:04:25;9.97;;;6.70;;
19525;SDS011;9907;42.676;26.348;2023-12-29T05:06:51;11.40;;;7.30;;
19525;SDS011;9907;42.676;26.348;2023-12-29T05:09:17;11.23;;;6.73;;
19525;SDS011;9907;42.676;26.348;2023-12-29T05:11:42;7.47;;;5.90;;
19525;SDS011;9907;42.676;26.348;2023-12-29T05:14:08;16.07;;;6.63;;
19525;SDS011;9907;42.676;26.348;2023-12-29T05:16:34;8.73;;;6.67;;
19525;SDS011;9907;42.676;26.348;2023-12-29T05:19:00;9.87;;;7.67;;
19525;SDS011;9907;42.676;26.348;2023-12-29T05:21:25;9.97;;;7.00;;
19525;SDS011;9907;42.676;26.348;2023-12-29T05:23:51;12.50;;;8.00;;
19525;SDS011;9907;42.676;26.348;2023-12-29T05:26:17;12.67;;;7.13;;
19525;SDS011;9907;42.676;26.348;2023-12-29T05:28:43;13.47;;;7.83;;
19525;SDS011;9907;42.676;26.348;2023-12-29T05:31:08;11.80;;;7.33;;
19525;SDS011;9907;42.676;26.348;2023-12-29T05:33:35;8.87;;;6.93;;
19525;SDS011;9907;42.676;26.348;2023-12-29T05:36:07;13.03;;;9.03;;
19525;SDS011;9907;42.676;26.348;2023-12-29T05:38:35;11.40;;;7.43;;
19525;SDS011;9907;42.676;26.348;2023-12-29T05:41:01;10.93;;;8.00;;
19525;SDS011;9907;42.676;26.348;2023-12-29T05:43:30;15.73;;;11.10;;
19525;SDS011;9907;42.676;26.348;2023-12-29T05:45:57;11.50;;;8.00;;
19525;SDS011;9907;42.676;26.348;2023-12-29T05:48:23;11.10;;;7.27;;
19525;SDS011;9907;42.676;26.348;2023-12-29T05:50:49;10.00;;;7.50;;
19525;SDS011;9907;42.676;26.348;2023-12-29T05:53:17;15.23;;;8.10;;
19525;SDS011;9907;42.676;26.348;2023-12-29T05:55:43;13.53;;;10.10;;
19525;SDS011;9907;42.676;26.348;2023-12-29T05:58:10;14.47;;;10.70;;
19525;SDS011;9907;42.676;26.348;2023-12-29T06:00:38;19.67;;;12.13;;
19525;SDS011;9907;42.676;26.348;2023-12-29T06:03:04;18.03;;;12.67;;
19525;SDS011;9907;42.676;26.348;2023-12-29T06:05:31;24.43;;;13.33;;
19525;SDS011;9907;42.676;26.348;2023-12-29T06:07:57;28.20;;;15.77;;
19525;SDS011;9907;42.676;26.348;2023-12-29T06:10:23;22.23;;;14.03;;
19525;SDS011;9907;42.676;26.348;2023-12-29T06:12:49;20.23;;;14.57;;
19525;SDS011;9907;42.676;26.348;2023-12-29T06:15:15;23.63;;;15.23;;
19525;SDS011;9907;42.676;26.348;2023-12-29T06:17:41;24.13;;;15.13;;
19525;SDS011;9907;42.676;26.348;2023-12-29T06:20:07;19.83;;;14.67;;
19525;SDS011;9907;42.676;26.348;2023-12-29T06:22:39;21.70;;;16.00;;
19525;SDS011;9907;42.676;26.348;2023-12-29T06:25:05;19.97;;;14.20;;
19525;SDS011;9907;42.676;26.348;2023-12-29T06:27:36;19.93;;;13.37;;
19525;SDS011;9907;42.676;26.348;2023-12-29T06:30:04;16.63;;;12.63;;
19525;SDS011;9907;42.676;26.348;2023-12-29T06:32:30;18.83;;;13.00;;
19525;SDS011;9907;42.676;26.348;2023-12-29T06:34:56;17.50;;;11.93;;
19525;SDS011;9907;42.676;26.348;2023-12-29T06:37:21;20.77;;;14.30;;
19525;SDS011;9907;42.676;26.348;2023-12-29T06:39:47;18.93;;;13.20;;
19525;SDS011;9907;42.676;26.348;2023-12-29T06:42:12;18.07;;;12.50;;
19525;SDS011;9907;42.676;26.348;2023-12-29T06:44:38;19.30;;;12.27;;
19525;SDS011;9907;42.676;26.348;2023-12-29T06:47:03;17.60;;;12.97;;
19525;SDS011;9907;42.676;26.348;2023-12-29T06:49:31;21.23;;;13.97;;
19525;SDS011;9907;42.676;26.348;2023-12-29T06:51:57;17.67;;;13.33;;
19525;SDS011;9907;42.676;26.348;2023-12-29T06:54:23;28.97;;;15.00;;
19525;SDS011;9907;42.676;26.348;2023-12-29T06:56:48;25.87;;;14.93;;
19525;SDS011;9907;42.676;26.348;2023-12-29T06:59:14;23.97;;;16.83;;
19525;SDS011;9907;42.676;26.348;2023-12-29T07:01:39;24.90;;;16.67;;
19525;SDS011;9907;42.676;26.348;2023-12-29T07:04:07;22.90;;;17.43;;
19525;SDS011;9907;42.676;26.348;2023-12-29T07:06:38;27.47;;;17.93;;
19525;SDS011;9907;42.676;26.348;2023-12-29T07:09:04;25.67;;;18.40;;
19525;SDS011;9907;42.676;26.348;2023-12-29T07:11:30;23.20;;;18.60;;
19525;SDS011;9907;42.676;26.348;2023-12-29T07:13:55;29.13;;;18.63;;
19525;SDS011;9907;42.676;26.348;2023-12-29T07:16:21;20.53;;;15.60;;
19525;SDS011;9907;42.676;26.348;2023-12-29T07:18:47;22.80;;;16.50;;
19525;SDS011;9907;42.676;26.348;2023-12-29T07:21:15;21.93;;;17.93;;
19525;SDS011;9907;42.676;26.348;2023-12-29T07:23:43;23.50;;;15.90;;
19525;SDS011;9907;42.676;26.348;2023-12-29T07:26:09;27.40;;;16.03;;
19525;SDS011;9907;42.676;26.348;2023-12-29T07:28:34;17.63;;;14.57;;
19525;SDS011;9907;42.676;26.348;2023-12-29T07:31:00;17.43;;;11.43;;
19525;SDS011;9907;42.676;26.348;2023-12-29T07:33:26;27.47;;;13.93;;
19525;SDS011;9907;42.676;26.348;2023-12-29T07:35:53;23.17;;;16.40;;
19525;SDS011;9907;42.676;26.348;2023-12-29T07:38:18;25.27;;;19.33;;
19525;SDS011;9907;42.676;26.348;2023-12-29T07:40:44;43.70;;;29.93;;
19525;SDS011;9907;42.676;26.348;2023-12-29T07:43:10;37.67;;;27.57;;
19525;SDS011;9907;42.676;26.348;2023-12-29T07:45:35;29.27;;;19.90;;
19525;SDS011;9907;42.676;26.348;2023-12-29T07:48:02;27.33;;;18.63;;
19525;SDS011;9907;42.676;26.348;2023-12-29T07:50:28;27.40;;;19.00;;
19525;SDS011;9907;42.676;26.348;2023-12-29T07:52:53;24.93;;;18.37;;
19525;SDS011;9907;42.676;26.348;2023-12-29T07:55:19;21.77;;;14.60;;
19525;SDS011;9907;42.676;26.348;2023-12-29T07:57:44;22.07;;;15.53;;
19525;SDS011;9907;42.676;26.348;2023-12-29T08:00:11;21.30;;;16.67;;
19525;SDS011;9907;42.676;26.348;2023-12-29T08:02:39;22.77;;;14.87;;
19525;SDS011;9907;42.676;26.348;2023-12-29T08:05:05;24.87;;;15.63;;
19525;SDS011;9907;42.676;26.348;2023-12-29T08:07:33;21.73;;;14.33;;
19525;SDS011;9907;42.676;26.348;2023-12-29T08:09:59;19.77;;;13.60;;
19525;SDS011;9907;42.676;26.348;2023-12-29T08:12:25;19.40;;;13.70;;
19525;SDS011;9907;42.676;26.348;2023-12-29T08:14:50;20.77;;;12.00;;
19525;SDS011;9907;42.676;26.348;2023-12-29T08:17:16;18.37;;;11.37;;
19525;SDS011;9907;42.676;26.348;2023-12-29T08:19:41;16.30;;;11.80;;
19525;SDS011;9907;42.676;26.348;2023-12-29T08:22:06;17.63;;;10.27;;
19525;SDS011;9907;42.676;26.348;2023-12-29T08:24:33;16.37;;;10.20;;
19525;SDS011;9907;42.676;26.348;2023-12-29T08:26:59;13.17;;;11.00;;
19525;SDS011;9907;42.676;26.348;2023-12-29T08:29:24;12.80;;;10.13;;
19525;SDS011;9907;42.676;26.348;2023-12-29T08:31:51;11.00;;;9.70;;
19525;SDS011;9907;42.676;26.348;2023-12-29T08:34:16;14.13;;;11.10;;
19525;SDS011;9907;42.676;26.348;2023-12-29T08:36:42;13.30;;;10.50;;
19525;SDS011;9907;42.676;26.348;2023-12-29T08:39:07;15.33;;;10.97;;
19525;SDS011;9907;42.676;26.348;2023-12-29T08:41:34;17.13;;;10.33;;
19525;SDS011;9907;42.676;26.348;2023-12-29T08:44:00;14.07;;;9.87;;
19525;SDS011;9907;42.676;26.348;2023-12-29T08:46:25;13.80;;;10.30;;
19525;SDS011;9907;42.676;26.348;2023-12-29T08:48:51;13.73;;;9.63;;
19525;SDS011;9907;42.676;26.348;2023-12-29T08:51:16;15.10;;;10.57;;
19525;SDS011;9907;42.676;26.348;2023-12-29T08:53:42;13.57;;;9.70;;
19525;SDS011;9907;42.676;26.348;2023-12-29T08:56:07;14.53;;;9.97;;
19525;SDS011;9907;42.676;26.348;2023-12-29T08:58:33;12.90;;;9.43;;
19525;SDS011;9907;42.676;26.348;2023-12-29T09:00:59;11.67;;;9.20;;
19525;SDS011;9907;42.676;26.348;2023-12-29T09:03:25;12.53;;;9.30;;
19525;SDS011;9907;42.676;26.348;2023-12-29T09:05:50;13.27;;;8.53;;
19525;SDS011;9907;42.676;26.348;2023-12-29T09:08:15;11.07;;;7.80;;
19525;SDS011;9907;42.676;26.348;2023-12-29T09:10:41;14.70;;;8.27;;
19525;SDS011;9907;42.676;26.348;2023-12-29T09:13:07;11.47;;;8.27;;
19525;SDS011;9907;42.676;26.348;2023-12-29T09:15:32;11.97;;;8.40;;
19525;SDS011;9907;42.676;26.348;2023-12-29T09:17:59;19.37;;;8.53;;
19525;SDS011;9907;42.676;26.348;2023-12-29T09:20:24;18.93;;;8.97;;
19525;SDS011;9907;42.676;26.348;2023-12-29T09:22:50;14.30;;;9.27;;
19525;SDS011;9907;42.676;26.348;2023-12-29T09:25:16;30.10;;;10.67;;
19525;SDS011;9907;42.676;26.348;2023-12-29T09:27:42;29.50;;;14.83;;
19525;SDS011;9907;42.676;26.348;2023-12-29T09:30:09;26.80;;;15.57;;
19525;SDS011;9907;42.676;26.348;2023-12-29T09:32:34;24.90;;;13.97;;
19525;SDS011;9907;42.676;26.348;2023-12-29T09:35:00;30.37;;;14.33;;
19525;SDS011;9907;42.676;26.348;2023-12-29T09:37:25;24.40;;;14.40;;
19525;SDS011;9907;42.676;26.348;2023-12-29T09:39:51;20.70;;;14.30;;
19525;SDS011;9907;42.676;26.348;2023-12-29T09:42:20;17.60;;;10.87;;
19525;SDS011;9907;42.676;26.348;2023-12-29T09:44:49;14.17;;;10.67;;
19525;SDS011;9907;42.676;26.348;2023-12-29T09:47:16;16.30;;;10.53;;
19525;SDS011;9907;42.676;26.348;2023-12-29T09:49:48;14.83;;;10.57;;
19525;SDS011;9907;42.676;26.348;2023-12-29T09:52:14;17.83;;;10.27;;
19525;SDS011;9907;42.676;26.348;2023-12-29T09:54:42;13.83;;;10.03;;
19525;SDS011;9907;42.676;26.348;2023-12-29T09:57:09;14.80;;;9.97;;
19525;SDS011;9907;42.676;26.348;2023-12-29T09:59:38;13.00;;;11.17;;
19525;SDS011;9907;42.676;26.348;2023-12-29T10:02:07;19.60;;;10.30;;
19525;SDS011;9907;42.676;26.348;2023-12-29T10:04:39;16.70;;;11.03;;
19525;SDS011;9907;42.676;26.348;2023-12-29T10:07:05;14.77;;;9.87;;
19525;SDS011;9907;42.676;26.348;2023-12-29T10:09:33;14.40;;;8.97;;
19525;SDS011;9907;42.676;26.348;2023-12-29T10:12:02;20.33;;;10.37;;
19525;SDS011;9907;42.676;26.348;2023-12-29T10:14:36;15.63;;;9.50;;
19525;SDS011;9907;42.676;26.348;2023-12-29T10:17:09;14.70;;;10.30;;
19525;SDS011;9907;42.676;26.348;2023-12-29T10:19:58;13.33;;;8.87;;
19525;SDS011;9907;42.676;26.348;2023-12-29T10:22:36;15.20;;;9.97;;
19525;SDS011;9907;42.676;26.348;2023-12-29T10:25:13;13.80;;;10.23;;
19525;SDS011;9907;42.676;26.348;2023-12-29T10:27:39;16.33;;;9.17;;
19525;SDS011;9907;42.676;26.348;2023-12-29T10:30:06;14.23;;;8.90;;
19525;SDS011;9907;42.676;26.348;2023-12-29T10:32:36;14.53;;;9.03;;
19525;SDS011;9907;42.676;26.348;2023-12-29T10:35:08;17.10;;;9.47;;
19525;SDS011;9907;42.676;26.348;2023-12-29T10:37:35;10.53;;;9.23;;
19525;SDS011;9907;42.676;26.348;2023-12-29T10:40:00;16.47;;;10.10;;
19525;SDS011;9907;42.676;26.348;2023-12-29T10:42:26;15.10;;;9.57;;
19525;SDS011;9907;42.676;26.348;2023-12-29T10:45:14;17.00;;;9.97;;
19525;SDS011;9907;42.676;26.348;2023-12-29T10:47:43;14.23;;;10.27;;
19525;SDS011;9907;42.676;26.348;2023-12-29T10:50:09;13.60;;;10.30;;
19525;SDS011;9907;42.676;26.348;2023-12-29T10:52:34;13.97;;;9.70;;
19525;SDS011;9907;42.676;26.348;2023-12-29T10:55:06;16.77;;;10.33;;
19525;SDS011;9907;42.676;26.348;2023-12-29T10:57:32;15.53;;;10.70;;
19525;SDS011;9907;42.676;26.348;2023-12-29T10:59:58;16.33;;;10.53;;
19525;SDS011;9907;42.676;26.348;2023-12-29T11:02:28;13.03;;;10.23;;
19525;SDS011;9907;42.676;26.348;2023-12-29T11:05:06;21.33;;;11.67;;
19525;SDS011;9907;42.676;26.348;2023-12-29T11:07:34;15.67;;;11.40;;
19525;SDS011;9907;42.676;26.348;2023-12-29T11:10:05;15.83;;;10.70;;
19525;SDS011;9907;42.676;26.348;2023-12-29T11:12:35;14.43;;;10.60;;
19525;SDS011;9907;42.676;26.348;2023-12-29T11:15:03;17.37;;;11.27;;
19525;SDS011;9907;42.676;26.348;2023-12-29T11:17:30;15.87;;;10.47;;
19525;SDS011;9907;42.676;26.348;2023-12-29T11:19:58;12.90;;;10.60;;
19525;SDS011;9907;42.676;26.348;2023-12-29T11:22:26;13.50;;;10.00;;
19525;SDS011;9907;42.676;26.348;2023-12-29T11:24:54;23.70;;;12.03;;
19525;SDS011;9907;42.676;26.348;2023-12-29T11:27:19;16.13;;;10.60;;
19525;SDS011;9907;42.676;26.348;2023-12-29T11:29:47;18.90;;;10.80;;
19525;SDS011;9907;42.676;26.348;2023-12-29T11:32:16;16.67;;;11.30;;
19525;SDS011;9907;42.676;26.348;2023-12-29T11:34:48;21.13;;;13.57;;
19525;SDS011;9907;42.676;26.348;2023-12-29T11:37:28;18.70;;;13.10;;
19525;SDS011;9907;42.676;26.348;2023-12-29T11:40:21;18.10;;;12.73;;
19525;SDS011;9907;42.676;26.348;2023-12-29T11:42:53;15.53;;;11.77;;
19525;SDS011;9907;42.676;26.348;2023-12-29T11:45:30;15.40;;;12.20;;
19525;SDS011;9907;42.676;26.348;2023-12-29T11:47:59;21.37;;;13.40;;
19525;SDS011;9907;42.676;26.348;2023-12-29T11:50:32;18.57;;;13.53;;
19525;SDS011;9907;42.676;26.348;2023-12-29T11:52:58;21.87;;;13.93;;
19525;SDS011;9907;42.676;26.348;2023-12-29T11:55:28;23.33;;;13.73;;
19525;SDS011;9907;42.676;26.348;2023-12-29T11:57:55;20.00;;;13.43;;
19525;SDS011;9907;42.676;26.348;2023-12-29T12:00:35;23.70;;;13.87;;
19525;SDS011;9907;42.676;26.348;2023-12-29T12:03:15;20.83;;;12.50;;
19525;SDS011;9907;42.676;26.348;2023-12-29T12:05:47;16.17;;;12.77;;
19525;SDS011;9907;42.676;26.348;2023-12-29T12:08:29;22.93;;;14.60;;
19525;SDS011;9907;42.676;26.348;2023-12-29T12:13:55;19.43;;;14.83;;
19525;SDS011;9907;42.676;26.348;2023-12-29T12:19:11;20.27;;;15.27;;
19525;SDS011;9907;42.676;26.348;2023-12-29T12:21:38;14.27;;;11.50;;
19525;SDS011;9907;42.676;26.348;2023-12-29T12:24:04;18.77;;;13.20;;
19525;SDS011;9907;42.676;26.348;2023-12-29T12:26:30;14.03;;;11.40;;
19525;SDS011;9907;42.676;26.348;2023-12-29T12:28:56;22.57;;;15.97;;
19525;SDS011;9907;42.676;26.348;2023-12-29T12:31:22;16.43;;;12.13;;
19525;SDS011;9907;42.676;26.348;2023-12-29T12:33:54;19.60;;;13.90;;
19525;SDS011;9907;42.676;26.348;2023-12-29T12:36:25;18.73;;;12.57;;
19525;SDS011;9907;42.676;26.348;2023-12-29T12:38:53;18.60;;;11.47;;
19525;SDS011;9907;42.676;26.348;2023-12-29T12:41:23;14.80;;;10.87;;
19525;SDS011;9907;42.676;26.348;2023-12-29T12:44:11;14.63;;;10.70;;
19525;SDS011;9907;42.676;26.348;2023-12-29T12:47:01;15.90;;;10.50;;
19525;SDS011;9907;42.676;26.348;2023-12-29T12:49:28;13.43;;;10.23;;
19525;SDS011;9907;42.676;26.348;2023-12-29T12:51:54;13.90;;;11.73;;
19525;SDS011;9907;42.676;26.348;2023-12-29T12:54:20;22.73;;;15.93;;
19525;SDS011;9907;42.676;26.348;2023-12-29T12:56:47;17.53;;;12.40;;
19525;SDS011;9907;42.676;26.348;2023-12-29T12:59:13;15.57;;;11.37;;
19525;SDS011;9907;42.676;26.348;2023-12-29T13:01:39;15.87;;;11.23;;
19525;SDS011;9907;42.676;26.348;2023-12-29T13:04:05;11.97;;;8.67;;
19525;SDS011;9907;42.676;26.348;2023-12-29T13:06:38;18.53;;;10.77;;
19525;SDS011;9907;42.676;26.348;2023-12-29T13:09:11;13.83;;;9.97;;
19525;SDS011;9907;42.676;26.348;2023-12-29T13:11:38;13.53;;;10.50;;
19525;SDS011;9907;42.676;26.348;2023-12-29T13:14:07;16.93;;;10.60;;
19525;SDS011;9907;42.676;26.348;2023-12-29T13:16:34;10.40;;;8.53;;
19525;SDS011;9907;42.676;26.348;2023-12-29T13:19:20;13.23;;;9.33;;
19525;SDS011;9907;42.676;26.348;2023-12-29T13:21:51;11.60;;;8.20;;
19525;SDS011;9907;42.676;26.348;2023-12-29T13:24:21;11.07;;;8.03;;
19525;SDS011;9907;42.676;26.348;2023-12-29T13:26:50;10.67;;;7.60;;
19525;SDS011;9907;42.676;26.348;2023-12-29T13:29:18;10.63;;;8.03;;
19525;SDS011;9907;42.676;26.348;2023-12-29T13:31:46;9.70;;;7.97;;
19525;SDS011;9907;42.676;26.348;2023-12-29T13:34:18;8.87;;;6.67;;
19525;SDS011;9907;42.676;26.348;2023-12-29T13:37:00;7.80;;;6.57;;
19525;SDS011;9907;42.676;26.348;2023-12-29T13:39:45;10.57;;;7.73;;
19525;SDS011;9907;42.676;26.348;2023-12-29T13:42:18;11.13;;;7.93;;
19525;SDS011;9907;42.676;26.348;2023-12-29T13:44:45;8.77;;;7.00;;
19525;SDS011;9907;42.676;26.348;2023-12-29T13:47:12;10.87;;;7.70;;
19525;SDS011;9907;42.676;26.348;2023-12-29T13:49:39;9.53;;;7.47;;
19525;SDS011;9907;42.676;26.348;2023-12-29T13:52:04;25.10;;;11.90;;
19525;SDS011;9907;42.676;26.348;2023-12-29T13:54:31;12.87;;;9.50;;
19525;SDS011;9907;42.676;26.348;2023-12-29T13:57:06;11.57;;;8.77;;
19525;SDS011;9907;42.676;26.348;2023-12-29T13:59:31;15.00;;;9.53;;
19525;SDS011;9907;42.676;26.348;2023-12-29T14:02:19;14.23;;;9.60;;
19525;SDS011;9907;42.676;26.348;2023-12-29T14:04:42;12.27;;;8.73;;
19525;SDS011;9907;42.676;26.348;2023-12-29T14:07:08;11.87;;;8.30;;
19525;SDS011;9907;42.676;26.348;2023-12-29T14:09:35;12.63;;;7.00;;
19525;SDS011;9907;42.676;26.348;2023-12-29T14:12:00;9.50;;;7.83;;
19525;SDS011;9907;42.676;26.348;2023-12-29T14:14:25;16.63;;;11.10;;
19525;SDS011;9907;42.676;26.348;2023-12-29T14:16:52;14.57;;;11.73;;
19525;SDS011;9907;42.676;26.348;2023-12-29T14:19:18;13.90;;;10.10;;
19525;SDS011;9907;42.676;26.348;2023-12-29T14:21:43;22.47;;;16.70;;
19525;SDS011;9907;42.676;26.348;2023-12-29T14:24:15;13.80;;;10.77;;
19525;SDS011;9907;42.676;26.348;2023-12-29T14:29:12;11.77;;;8.33;;
19525;SDS011;9907;42.676;26.348;2023-12-29T14:31:42;9.87;;;7.97;;
19525;SDS011;9907;42.676;26.348;2023-12-29T14:34:08;10.87;;;8.33;;
19525;SDS011;9907;42.676;26.348;2023-12-29T14:36:37;10.67;;;7.40;;
19525;SDS011;9907;42.676;26.348;2023-12-29T14:39:04;8.50;;;6.47;;
19525;SDS011;9907;42.676;26.348;2023-12-29T14:41:31;9.23;;;6.97;;
19525;SDS011;9907;42.676;26.348;2023-12-29T14:43:56;7.07;;;6.20;;